sensor_id;sensor_type;location;lat;lon;timestamp;P1;durP1;ratioP1;P2;durP2;ratioP2
20567;SDS011;10442;49.932;11.592;2023-02-12T00:01:08;28.67;;;24.90;;
20567;SDS011;10442;49.932;11.592;2023-02-12T00:03:37;34.30;;;28.33;;
20567;SDS011;10442;49.932;11.592;2023-02-12T00:06:06;31.00;;;27.07;;
20567;SDS011;10442;49.932;11.592;2023-02-12T00:08:35;35.60;;;28.13;;
20567;SDS011;10442;49.932;11.592;2023-02-12T00:11:07;31.30;;;26.27;;
20567;SDS011;10442;49.932;11.592;2023-02-12T00:13:39;34.37;;;26.67;;
20567;SDS011;10442;49.932;11.592;2023-02-12T00:16:08;40.47;;;28.67;;
20567;SDS011;10442;49.932;11.592;2023-02-12T00:18:37;31.73;;;25.80;;
20567;SDS011;10442;49.932;11.592;2023-02-12T00:21:05;36.57;;;28.47;;
20567;SDS011;10442;49.932;11.592;2023-02-12T00:23:35;35.37;;;28.13;;
20567;SDS011;10442;49.932;11.592;2023-02-12T00:26:07;34.70;;;28.13;;
20567;SDS011;10442;49.932;11.592;2023-02-12T00:28:37;28.30;;;24.53;;
20567;SDS011;10442;49.932;11.592;2023-02-12T00:31:09;31.63;;;25.83;;
20567;SDS011;10442;49.932;11.592;2023-02-12T00:33:41;31.87;;;25.87;;
20567;SDS011;10442;49.932;11.592;2023-02-12T00:36:09;35.37;;;28.33;;
20567;SDS011;10442;49.932;11.592;2023-02-12T00:38:41;37.87;;;27.03;;
20567;SDS011;10442;49.932;11.592;2023-02-12T00:41:09;28.03;;;24.70;;
20567;SDS011;10442;49.932;11.592;2023-02-12T00:43:37;32.63;;;25.07;;
20567;SDS011;10442;49.932;11.592;2023-02-12T00:46:05;34.93;;;26.50;;
20567;SDS011;10442;49.932;11.592;2023-02-12T00:48:34;26.80;;;23.03;;
20567;SDS011;10442;49.932;11.592;2023-02-12T00:51:02;30.50;;;26.47;;
20567;SDS011;10442;49.932;11.592;2023-02-12T00:53:30;31.33;;;25.17;;
20567;SDS011;10442;49.932;11.592;2023-02-12T00:55:58;32.53;;;25.73;;
20567;SDS011;10442;49.932;11.592;2023-02-12T00:58:27;31.10;;;25.27;;
20567;SDS011;10442;49.932;11.592;2023-02-12T01:00:54;35.53;;;26.97;;
20567;SDS011;10442;49.932;11.592;2023-02-12T01:03:22;37.03;;;26.93;;
20567;SDS011;10442;49.932;11.592;2023-02-12T01:05:51;35.60;;;25.33;;
20567;SDS011;10442;49.932;11.592;2023-02-12T01:08:21;35.93;;;25.30;;
20567;SDS011;10442;49.932;11.592;2023-02-12T01:10:56;40.77;;;29.50;;
20567;SDS011;10442;49.932;11.592;2023-02-12T01:13:27;35.00;;;25.50;;
20567;SDS011;10442;49.932;11.592;2023-02-12T01:18:41;32.53;;;25.73;;
20567;SDS011;10442;49.932;11.592;2023-02-12T01:21:10;35.90;;;30.57;;
20567;SDS011;10442;49.932;11.592;2023-02-12T01:23:43;38.83;;;27.33;;
20567;SDS011;10442;49.932;11.592;2023-02-12T01:26:12;43.40;;;30.40;;
20567;SDS011;10442;49.932;11.592;2023-02-12T01:28:41;42.20;;;30.77;;
20567;SDS011;10442;49.932;11.592;2023-02-12T01:31:14;49.43;;;32.70;;
20567;SDS011;10442;49.932;11.592;2023-02-12T01:33:46;36.23;;;28.77;;
20567;SDS011;10442;49.932;11.592;2023-02-12T01:36:15;47.70;;;34.73;;
20567;SDS011;10442;49.932;11.592;2023-02-12T01:38:42;48.23;;;31.70;;
20567;SDS011;10442;49.932;11.592;2023-02-12T01:41:12;38.33;;;28.83;;
20567;SDS011;10442;49.932;11.592;2023-02-12T01:43:41;37.13;;;28.10;;
20567;SDS011;10442;49.932;11.592;2023-02-12T01:46:11;55.80;;;36.77;;
20567;SDS011;10442;49.932;11.592;2023-02-12T01:48:41;49.63;;;33.40;;
20567;SDS011;10442;49.932;11.592;2023-02-12T01:51:11;47.70;;;33.27;;
20567;SDS011;10442;49.932;11.592;2023-02-12T01:53:46;48.63;;;32.83;;
20567;SDS011;10442;49.932;11.592;2023-02-12T01:56:17;45.80;;;32.07;;
20567;SDS011;10442;49.932;11.592;2023-02-12T01:58:45;47.03;;;33.87;;
20567;SDS011;10442;49.932;11.592;2023-02-12T02:01:18;49.77;;;35.07;;
20567;SDS011;10442;49.932;11.592;2023-02-12T02:03:49;47.73;;;33.23;;
20567;SDS011;10442;49.932;11.592;2023-02-12T02:06:21;44.77;;;30.43;;
20567;SDS011;10442;49.932;11.592;2023-02-12T02:08:53;47.53;;;34.50;;
20567;SDS011;10442;49.932;11.592;2023-02-12T02:11:22;40.83;;;30.17;;
20567;SDS011;10442;49.932;11.592;2023-02-12T02:14:08;54.23;;;34.43;;
20567;SDS011;10442;49.932;11.592;2023-02-12T02:23:08;41.87;;;32.33;;
20567;SDS011;10442;49.932;11.592;2023-02-12T02:25:45;45.63;;;33.63;;
20567;SDS011;10442;49.932;11.592;2023-02-12T02:28:29;40.10;;;28.90;;
20567;SDS011;10442;49.932;11.592;2023-02-12T02:31:24;40.87;;;30.80;;
20567;SDS011;10442;49.932;11.592;2023-02-12T02:37:00;46.97;;;32.40;;
20567;SDS011;10442;49.932;11.592;2023-02-12T02:42:30;49.40;;;33.20;;
20567;SDS011;10442;49.932;11.592;2023-02-12T02:47:39;54.27;;;34.17;;
20567;SDS011;10442;49.932;11.592;2023-02-12T02:50:12;47.97;;;34.03;;
20567;SDS011;10442;49.932;11.592;2023-02-12T02:55:18;47.77;;;32.37;;
20567;SDS011;10442;49.932;11.592;2023-02-12T02:57:53;50.73;;;32.57;;
20567;SDS011;10442;49.932;11.592;2023-02-12T03:00:36;47.67;;;29.77;;
20567;SDS011;10442;49.932;11.592;2023-02-12T03:03:11;44.73;;;32.90;;
20567;SDS011;10442;49.932;11.592;2023-02-12T03:05:50;52.13;;;33.83;;
20567;SDS011;10442;49.932;11.592;2023-02-12T03:08:37;46.97;;;34.17;;
20567;SDS011;10442;49.932;11.592;2023-02-12T03:11:10;55.03;;;33.67;;
20567;SDS011;10442;49.932;11.592;2023-02-12T03:13:43;62.53;;;36.53;;
20567;SDS011;10442;49.932;11.592;2023-02-12T03:16:25;53.43;;;33.40;;
20567;SDS011;10442;49.932;11.592;2023-02-12T03:18:58;60.00;;;36.43;;
20567;SDS011;10442;49.932;11.592;2023-02-12T03:21:35;74.67;;;39.13;;
20567;SDS011;10442;49.932;11.592;2023-02-12T03:24:10;72.87;;;41.10;;
20567;SDS011;10442;49.932;11.592;2023-02-12T03:26:49;74.67;;;39.90;;
20567;SDS011;10442;49.932;11.592;2023-02-12T03:29:21;71.17;;;38.90;;
20567;SDS011;10442;49.932;11.592;2023-02-12T03:45:18;64.50;;;38.43;;
20567;SDS011;10442;49.932;11.592;2023-02-12T03:50:51;64.90;;;38.57;;
20567;SDS011;10442;49.932;11.592;2023-02-12T03:53:19;57.63;;;35.53;;
20567;SDS011;10442;49.932;11.592;2023-02-12T03:55:48;55.50;;;33.37;;
20567;SDS011;10442;49.932;11.592;2023-02-12T03:58:22;53.30;;;35.70;;
20567;SDS011;10442;49.932;11.592;2023-02-12T04:00:53;69.93;;;41.10;;
20567;SDS011;10442;49.932;11.592;2023-02-12T04:03:21;76.53;;;38.63;;
20567;SDS011;10442;49.932;11.592;2023-02-12T04:05:49;69.53;;;35.47;;
20567;SDS011;10442;49.932;11.592;2023-02-12T04:08:16;73.77;;;36.57;;
20567;SDS011;10442;49.932;11.592;2023-02-12T04:13:41;73.43;;;40.63;;
20567;SDS011;10442;49.932;11.592;2023-02-12T04:16:28;87.03;;;42.80;;
20567;SDS011;10442;49.932;11.592;2023-02-12T04:19:04;79.10;;;42.20;;
20567;SDS011;10442;49.932;11.592;2023-02-12T04:21:44;71.73;;;40.40;;
20567;SDS011;10442;49.932;11.592;2023-02-12T04:29:47;125.93;;;45.13;;
20567;SDS011;10442;49.932;11.592;2023-02-12T04:32:19;85.33;;;41.20;;
20567;SDS011;10442;49.932;11.592;2023-02-12T04:37:42;84.63;;;38.47;;
20567;SDS011;10442;49.932;11.592;2023-02-12T04:40:22;79.50;;;40.27;;
20567;SDS011;10442;49.932;11.592;2023-02-12T04:42:50;96.63;;;43.10;;
20567;SDS011;10442;49.932;11.592;2023-02-12T04:45:20;68.40;;;38.70;;
20567;SDS011;10442;49.932;11.592;2023-02-12T04:47:50;128.97;;;45.37;;
20567;SDS011;10442;49.932;11.592;2023-02-12T04:50:18;94.17;;;46.47;;
20567;SDS011;10442;49.932;11.592;2023-02-12T04:52:45;96.63;;;44.00;;
20567;SDS011;10442;49.932;11.592;2023-02-12T04:55:13;83.20;;;41.67;;
20567;SDS011;10442;49.932;11.592;2023-02-12T04:57:41;102.50;;;48.43;;
20567;SDS011;10442;49.932;11.592;2023-02-12T05:00:11;87.30;;;44.47;;
20567;SDS011;10442;49.932;11.592;2023-02-12T05:02:39;79.60;;;43.23;;
20567;SDS011;10442;49.932;11.592;2023-02-12T05:05:07;72.17;;;41.87;;
20567;SDS011;10442;49.932;11.592;2023-02-12T05:07:34;89.17;;;44.70;;
20567;SDS011;10442;49.932;11.592;2023-02-12T05:10:02;89.33;;;44.70;;
20567;SDS011;10442;49.932;11.592;2023-02-12T05:12:30;107.67;;;46.93;;
20567;SDS011;10442;49.932;11.592;2023-02-12T05:14:57;115.13;;;44.80;;
20567;SDS011;10442;49.932;11.592;2023-02-12T05:17:24;95.50;;;42.87;;
20567;SDS011;10442;49.932;11.592;2023-02-12T05:19:52;99.30;;;44.50;;
20567;SDS011;10442;49.932;11.592;2023-02-12T05:22:19;77.90;;;41.80;;
20567;SDS011;10442;49.932;11.592;2023-02-12T05:24:47;73.87;;;39.97;;
20567;SDS011;10442;49.932;11.592;2023-02-12T05:27:14;94.73;;;42.80;;
20567;SDS011;10442;49.932;11.592;2023-02-12T05:29:41;86.03;;;40.73;;
20567;SDS011;10442;49.932;11.592;2023-02-12T05:32:09;85.27;;;39.17;;
20567;SDS011;10442;49.932;11.592;2023-02-12T05:34:36;68.03;;;39.07;;
20567;SDS011;10442;49.932;11.592;2023-02-12T05:37:04;65.60;;;36.50;;
20567;SDS011;10442;49.932;11.592;2023-02-12T05:39:31;74.77;;;39.60;;
20567;SDS011;10442;49.932;11.592;2023-02-12T05:41:59;72.37;;;40.10;;
20567;SDS011;10442;49.932;11.592;2023-02-12T05:44:26;73.27;;;39.00;;
20567;SDS011;10442;49.932;11.592;2023-02-12T05:46:54;79.20;;;38.03;;
20567;SDS011;10442;49.932;11.592;2023-02-12T05:49:22;76.67;;;39.20;;
20567;SDS011;10442;49.932;11.592;2023-02-12T05:51:49;81.90;;;37.87;;
20567;SDS011;10442;49.932;11.592;2023-02-12T05:54:16;51.80;;;34.33;;
20567;SDS011;10442;49.932;11.592;2023-02-12T05:56:45;67.50;;;39.37;;
20567;SDS011;10442;49.932;11.592;2023-02-12T05:59:17;68.43;;;36.53;;
20567;SDS011;10442;49.932;11.592;2023-02-12T06:01:48;64.20;;;33.23;;
20567;SDS011;10442;49.932;11.592;2023-02-12T06:04:18;55.63;;;33.90;;
20567;SDS011;10442;49.932;11.592;2023-02-12T06:06:53;43.43;;;30.07;;
20567;SDS011;10442;49.932;11.592;2023-02-12T06:09:22;76.43;;;34.47;;
20567;SDS011;10442;49.932;11.592;2023-02-12T06:11:50;59.40;;;33.53;;
20567;SDS011;10442;49.932;11.592;2023-02-12T06:14:18;49.33;;;32.20;;
20567;SDS011;10442;49.932;11.592;2023-02-12T06:16:48;48.37;;;32.20;;
20567;SDS011;10442;49.932;11.592;2023-02-12T06:19:17;48.93;;;29.80;;
20567;SDS011;10442;49.932;11.592;2023-02-12T06:21:45;56.10;;;35.87;;
20567;SDS011;10442;49.932;11.592;2023-02-12T06:24:13;44.97;;;30.37;;
20567;SDS011;10442;49.932;11.592;2023-02-12T06:26:41;36.30;;;25.07;;
20567;SDS011;10442;49.932;11.592;2023-02-12T06:29:10;41.80;;;30.23;;
20567;SDS011;10442;49.932;11.592;2023-02-12T06:31:39;41.33;;;28.30;;
20567;SDS011;10442;49.932;11.592;2023-02-12T06:34:07;42.03;;;29.27;;
20567;SDS011;10442;49.932;11.592;2023-02-12T06:36:36;42.03;;;28.37;;
20567;SDS011;10442;49.932;11.592;2023-02-12T06:39:05;36.57;;;26.23;;
20567;SDS011;10442;49.932;11.592;2023-02-12T06:41:33;30.20;;;22.77;;
20567;SDS011;10442;49.932;11.592;2023-02-12T06:44:00;33.37;;;26.13;;
20567;SDS011;10442;49.932;11.592;2023-02-12T06:46:27;36.57;;;27.20;;
20567;SDS011;10442;49.932;11.592;2023-02-12T06:48:56;33.53;;;23.90;;
20567;SDS011;10442;49.932;11.592;2023-02-12T06:51:25;35.43;;;24.50;;
20567;SDS011;10442;49.932;11.592;2023-02-12T06:53:54;37.00;;;26.10;;
20567;SDS011;10442;49.932;11.592;2023-02-12T06:56:22;32.97;;;23.03;;
20567;SDS011;10442;49.932;11.592;2023-02-12T06:58:55;34.23;;;25.80;;
20567;SDS011;10442;49.932;11.592;2023-02-12T07:01:24;32.27;;;24.67;;
20567;SDS011;10442;49.932;11.592;2023-02-12T07:03:54;30.07;;;22.17;;
20567;SDS011;10442;49.932;11.592;2023-02-12T07:06:24;28.10;;;21.30;;
20567;SDS011;10442;49.932;11.592;2023-02-12T07:08:53;31.57;;;22.97;;
20567;SDS011;10442;49.932;11.592;2023-02-12T07:11:22;33.63;;;25.20;;
20567;SDS011;10442;49.932;11.592;2023-02-12T07:13:54;31.27;;;23.43;;
20567;SDS011;10442;49.932;11.592;2023-02-12T07:16:22;31.47;;;23.33;;
20567;SDS011;10442;49.932;11.592;2023-02-12T07:18:50;32.23;;;21.83;;
20567;SDS011;10442;49.932;11.592;2023-02-12T07:21:17;32.57;;;24.80;;
20567;SDS011;10442;49.932;11.592;2023-02-12T07:23:49;33.63;;;23.47;;
20567;SDS011;10442;49.932;11.592;2023-02-12T07:26:18;30.73;;;22.60;;
20567;SDS011;10442;49.932;11.592;2023-02-12T07:28:46;28.60;;;22.70;;
20567;SDS011;10442;49.932;11.592;2023-02-12T07:31:18;35.90;;;25.67;;
20567;SDS011;10442;49.932;11.592;2023-02-12T07:33:48;31.23;;;24.07;;
20567;SDS011;10442;49.932;11.592;2023-02-12T07:36:19;30.67;;;22.07;;
20567;SDS011;10442;49.932;11.592;2023-02-12T07:38:47;27.67;;;21.67;;
20567;SDS011;10442;49.932;11.592;2023-02-12T07:41:19;32.00;;;22.80;;
20567;SDS011;10442;49.932;11.592;2023-02-12T07:43:52;31.87;;;23.10;;
20567;SDS011;10442;49.932;11.592;2023-02-12T07:46:23;28.17;;;21.83;;
20567;SDS011;10442;49.932;11.592;2023-02-12T07:49:02;29.63;;;21.87;;
20567;SDS011;10442;49.932;11.592;2023-02-12T07:51:32;36.27;;;24.60;;
20567;SDS011;10442;49.932;11.592;2023-02-12T07:54:00;32.20;;;22.50;;
20567;SDS011;10442;49.932;11.592;2023-02-12T07:56:29;30.33;;;22.10;;
20567;SDS011;10442;49.932;11.592;2023-02-12T07:59:00;33.50;;;24.03;;
20567;SDS011;10442;49.932;11.592;2023-02-12T08:01:37;31.63;;;24.13;;
20567;SDS011;10442;49.932;11.592;2023-02-12T08:04:07;30.43;;;21.77;;
20567;SDS011;10442;49.932;11.592;2023-02-12T08:06:37;27.30;;;20.47;;
20567;SDS011;10442;49.932;11.592;2023-02-12T08:09:07;31.30;;;22.10;;
20567;SDS011;10442;49.932;11.592;2023-02-12T08:11:37;30.50;;;22.20;;
20567;SDS011;10442;49.932;11.592;2023-02-12T08:14:06;32.17;;;24.23;;
20567;SDS011;10442;49.932;11.592;2023-02-12T08:16:35;32.77;;;23.60;;
20567;SDS011;10442;49.932;11.592;2023-02-12T08:19:04;37.40;;;27.60;;
20567;SDS011;10442;49.932;11.592;2023-02-12T08:21:47;38.30;;;27.47;;
20567;SDS011;10442;49.932;11.592;2023-02-12T08:24:19;36.53;;;26.57;;
20567;SDS011;10442;49.932;11.592;2023-02-12T08:26:48;35.53;;;25.30;;
20567;SDS011;10442;49.932;11.592;2023-02-12T08:29:17;39.47;;;27.03;;
20567;SDS011;10442;49.932;11.592;2023-02-12T08:31:47;41.23;;;28.57;;
20567;SDS011;10442;49.932;11.592;2023-02-12T08:34:20;32.90;;;24.30;;
20567;SDS011;10442;49.932;11.592;2023-02-12T08:36:50;36.00;;;26.13;;
20567;SDS011;10442;49.932;11.592;2023-02-12T08:39:20;33.17;;;25.77;;
20567;SDS011;10442;49.932;11.592;2023-02-12T08:41:48;36.57;;;26.10;;
20567;SDS011;10442;49.932;11.592;2023-02-12T08:44:16;38.63;;;27.33;;
20567;SDS011;10442;49.932;11.592;2023-02-12T08:46:45;38.70;;;26.80;;
20567;SDS011;10442;49.932;11.592;2023-02-12T08:49:15;36.10;;;27.27;;
20567;SDS011;10442;49.932;11.592;2023-02-12T08:51:48;39.67;;;26.73;;
20567;SDS011;10442;49.932;11.592;2023-02-12T08:54:18;37.33;;;27.70;;
20567;SDS011;10442;49.932;11.592;2023-02-12T08:56:47;38.03;;;26.40;;
20567;SDS011;10442;49.932;11.592;2023-02-12T08:59:15;43.40;;;28.00;;
20567;SDS011;10442;49.932;11.592;2023-02-12T09:01:43;35.13;;;26.07;;
20567;SDS011;10442;49.932;11.592;2023-02-12T09:04:15;36.07;;;26.00;;
20567;SDS011;10442;49.932;11.592;2023-02-12T09:06:45;34.70;;;25.37;;
20567;SDS011;10442;49.932;11.592;2023-02-12T09:09:13;33.27;;;24.50;;
20567;SDS011;10442;49.932;11.592;2023-02-12T09:11:41;41.27;;;28.83;;
20567;SDS011;10442;49.932;11.592;2023-02-12T09:14:10;36.40;;;26.33;;
20567;SDS011;10442;49.932;11.592;2023-02-12T09:16:39;38.40;;;27.63;;
20567;SDS011;10442;49.932;11.592;2023-02-12T09:19:07;42.23;;;29.80;;
20567;SDS011;10442;49.932;11.592;2023-02-12T09:21:37;39.40;;;27.80;;
20567;SDS011;10442;49.932;11.592;2023-02-12T09:24:04;39.20;;;29.13;;
20567;SDS011;10442;49.932;11.592;2023-02-12T09:26:32;39.83;;;30.30;;
20567;SDS011;10442;49.932;11.592;2023-02-12T09:29:00;38.73;;;28.27;;
20567;SDS011;10442;49.932;11.592;2023-02-12T09:31:30;38.43;;;27.20;;
20567;SDS011;10442;49.932;11.592;2023-02-12T09:33:59;35.70;;;26.87;;
20567;SDS011;10442;49.932;11.592;2023-02-12T09:36:28;41.77;;;27.70;;
20567;SDS011;10442;49.932;11.592;2023-02-12T09:38:56;34.10;;;25.47;;
20567;SDS011;10442;49.932;11.592;2023-02-12T09:44:34;41.57;;;27.53;;
20567;SDS011;10442;49.932;11.592;2023-02-12T09:53:20;35.63;;;26.47;;
20567;SDS011;10442;49.932;11.592;2023-02-12T09:55:51;33.40;;;25.13;;
20567;SDS011;10442;49.932;11.592;2023-02-12T09:58:23;33.63;;;24.43;;
20567;SDS011;10442;49.932;11.592;2023-02-12T10:00:55;35.60;;;26.43;;
20567;SDS011;10442;49.932;11.592;2023-02-12T10:03:23;33.10;;;24.43;;
20567;SDS011;10442;49.932;11.592;2023-02-12T10:06:06;34.47;;;25.53;;
20567;SDS011;10442;49.932;11.592;2023-02-12T10:08:51;37.70;;;27.80;;
20567;SDS011;10442;49.932;11.592;2023-02-12T10:28:06;34.53;;;25.38;;
20567;SDS011;10442;49.932;11.592;2023-02-12T10:30:39;32.83;;;24.48;;
20567;SDS011;10442;49.932;11.592;2023-02-12T10:33:17;30.25;;;23.33;;
20567;SDS011;10442;49.932;11.592;2023-02-12T10:35:51;28.90;;;23.35;;
20567;SDS011;10442;49.932;11.592;2023-02-12T10:38:28;30.33;;;24.40;;
20567;SDS011;10442;49.932;11.592;2023-02-12T10:40:59;31.05;;;22.83;;
20567;SDS011;10442;49.932;11.592;2023-02-12T10:43:28;27.05;;;21.15;;
20567;SDS011;10442;49.932;11.592;2023-02-12T10:45:56;26.95;;;20.58;;
20567;SDS011;10442;49.932;11.592;2023-02-12T10:48:31;23.75;;;18.85;;
20567;SDS011;10442;49.932;11.592;2023-02-12T10:51:08;26.60;;;21.17;;
20567;SDS011;10442;49.932;11.592;2023-02-12T10:53:46;26.80;;;21.20;;
20567;SDS011;10442;49.932;11.592;2023-02-12T10:56:15;29.23;;;23.08;;
20567;SDS011;10442;49.932;11.592;2023-02-12T11:06:57;29.23;;;22.33;;
20567;SDS011;10442;49.932;11.592;2023-02-12T11:09:28;29.25;;;21.92;;
20567;SDS011;10442;49.932;11.592;2023-02-12T11:12:02;30.27;;;23.25;;
20567;SDS011;10442;49.932;11.592;2023-02-12T11:14:29;26.15;;;20.23;;
20567;SDS011;10442;49.932;11.592;2023-02-12T11:16:58;31.80;;;21.70;;
20567;SDS011;10442;49.932;11.592;2023-02-12T11:19:29;28.45;;;23.00;;
20567;SDS011;10442;49.932;11.592;2023-02-12T11:22:05;25.77;;;21.10;;
20567;SDS011;10442;49.932;11.592;2023-02-12T11:24:40;26.77;;;21.60;;
20567;SDS011;10442;49.932;11.592;2023-02-12T11:29:43;27.08;;;21.88;;
20567;SDS011;10442;49.932;11.592;2023-02-12T11:32:15;30.02;;;23.92;;
20567;SDS011;10442;49.932;11.592;2023-02-12T11:35:04;28.33;;;21.08;;
20567;SDS011;10442;49.932;11.592;2023-02-12T11:37:42;27.02;;;21.77;;
20567;SDS011;10442;49.932;11.592;2023-02-12T11:40:22;29.50;;;22.58;;
20567;SDS011;10442;49.932;11.592;2023-02-12T11:43:03;29.08;;;23.08;;
20567;SDS011;10442;49.932;11.592;2023-02-12T11:45:46;28.85;;;22.73;;
20567;SDS011;10442;49.932;11.592;2023-02-12T11:48:20;29.88;;;23.80;;
20567;SDS011;10442;49.932;11.592;2023-02-12T11:50:53;28.63;;;22.27;;
20567;SDS011;10442;49.932;11.592;2023-02-12T11:53:24;28.67;;;21.40;;
20567;SDS011;10442;49.932;11.592;2023-02-12T11:56:00;27.73;;;22.00;;
20567;SDS011;10442;49.932;11.592;2023-02-12T11:58:31;29.35;;;23.33;;
20567;SDS011;10442;49.932;11.592;2023-02-12T12:01:13;29.65;;;23.13;;
20567;SDS011;10442;49.932;11.592;2023-02-12T12:04:05;30.42;;;22.67;;
20567;SDS011;10442;49.932;11.592;2023-02-12T12:06:52;31.98;;;23.27;;
20567;SDS011;10442;49.932;11.592;2023-02-12T12:09:34;32.28;;;22.27;;
20567;SDS011;10442;49.932;11.592;2023-02-12T12:12:20;30.25;;;22.08;;
20567;SDS011;10442;49.932;11.592;2023-02-12T12:15:09;25.70;;;21.00;;
20567;SDS011;10442;49.932;11.592;2023-02-12T12:18:31;24.50;;;19.58;;
20567;SDS011;10442;49.932;11.592;2023-02-12T12:24:19;29.77;;;21.90;;
20567;SDS011;10442;49.932;11.592;2023-02-12T12:26:53;26.88;;;19.92;;
20567;SDS011;10442;49.932;11.592;2023-02-12T12:29:39;25.92;;;20.70;;
20567;SDS011;10442;49.932;11.592;2023-02-12T12:32:17;21.85;;;17.88;;
20567;SDS011;10442;49.932;11.592;2023-02-12T12:34:47;25.27;;;19.42;;
20567;SDS011;10442;49.932;11.592;2023-02-12T12:37:16;21.55;;;17.58;;
20567;SDS011;10442;49.932;11.592;2023-02-12T12:45:49;22.67;;;17.90;;
20567;SDS011;10442;49.932;11.592;2023-02-12T12:51:44;20.70;;;16.73;;
20567;SDS011;10442;49.932;11.592;2023-02-12T13:02:37;18.55;;;16.17;;
20567;SDS011;10442;49.932;11.592;2023-02-12T13:05:41;17.15;;;14.50;;
20567;SDS011;10442;49.932;11.592;2023-02-12T13:14:07;18.67;;;16.27;;
20567;SDS011;10442;49.932;11.592;2023-02-12T13:16:51;20.08;;;16.83;;
20567;SDS011;10442;49.932;11.592;2023-02-12T13:19:33;20.48;;;15.48;;
20567;SDS011;10442;49.932;11.592;2023-02-12T13:22:10;18.00;;;14.85;;
20567;SDS011;10442;49.932;11.592;2023-02-12T13:24:55;17.40;;;14.63;;
20567;SDS011;10442;49.932;11.592;2023-02-12T13:27:44;19.60;;;16.02;;
20567;SDS011;10442;49.932;11.592;2023-02-12T13:30:19;20.05;;;16.38;;
20567;SDS011;10442;49.932;11.592;2023-02-12T13:33:09;16.45;;;14.70;;
20567;SDS011;10442;49.932;11.592;2023-02-12T13:35:40;18.42;;;15.45;;
20567;SDS011;10442;49.932;11.592;2023-02-12T13:38:15;16.50;;;13.43;;
20567;SDS011;10442;49.932;11.592;2023-02-12T13:40:48;17.90;;;13.75;;
20567;SDS011;10442;49.932;11.592;2023-02-12T13:43:35;17.83;;;14.43;;
20567;SDS011;10442;49.932;11.592;2023-02-12T13:49:37;16.48;;;13.70;;
20567;SDS011;10442;49.932;11.592;2023-02-12T13:52:28;16.25;;;12.95;;
20567;SDS011;10442;49.932;11.592;2023-02-12T13:57:39;18.25;;;12.30;;
20567;SDS011;10442;49.932;11.592;2023-02-12T14:00:54;15.35;;;12.82;;
20567;SDS011;10442;49.932;11.592;2023-02-12T14:03:14;15.05;;;12.80;;
20567;SDS011;10442;49.932;11.592;2023-02-12T14:05:42;13.98;;;12.25;;
20567;SDS011;10442;49.932;11.592;2023-02-12T14:08:24;10.98;;;9.88;;
20567;SDS011;10442;49.932;11.592;2023-02-12T14:11:02;10.60;;;9.60;;
20567;SDS011;10442;49.932;11.592;2023-02-12T14:13:35;11.40;;;10.20;;
20567;SDS011;10442;49.932;11.592;2023-02-12T14:22:11;12.48;;;11.27;;
20567;SDS011;10442;49.932;11.592;2023-02-12T14:24:55;14.43;;;12.38;;
20567;SDS011;10442;49.932;11.592;2023-02-12T14:27:28;14.32;;;12.80;;
20567;SDS011;10442;49.932;11.592;2023-02-12T14:38:55;16.00;;;14.40;;
20567;SDS011;10442;49.932;11.592;2023-02-12T14:52:15;15.82;;;14.13;;
20567;SDS011;10442;49.932;11.592;2023-02-12T14:54:48;14.40;;;12.93;;
20567;SDS011;10442;49.932;11.592;2023-02-12T15:00:03;17.33;;;12.88;;
20567;SDS011;10442;49.932;11.592;2023-02-12T15:02:44;13.90;;;12.50;;
20567;SDS011;10442;49.932;11.592;2023-02-12T15:08:02;12.45;;;11.15;;
20567;SDS011;10442;49.932;11.592;2023-02-12T15:10:36;13.50;;;12.10;;
20567;SDS011;10442;49.932;11.592;2023-02-12T15:15:47;14.43;;;11.93;;
20567;SDS011;10442;49.932;11.592;2023-02-12T15:21:25;11.45;;;9.90;;
20567;SDS011;10442;49.932;11.592;2023-02-12T15:24:08;11.80;;;10.60;;
20567;SDS011;10442;49.932;11.592;2023-02-12T15:26:44;13.85;;;12.45;;
20567;SDS011;10442;49.932;11.592;2023-02-12T15:29:21;11.02;;;9.95;;
20567;SDS011;10442;49.932;11.592;2023-02-12T15:31:54;12.57;;;10.98;;
20567;SDS011;10442;49.932;11.592;2023-02-12T15:34:25;10.20;;;9.20;;
20567;SDS011;10442;49.932;11.592;2023-02-12T15:36:56;11.20;;;10.10;;
20567;SDS011;10442;49.932;11.592;2023-02-12T15:39:26;10.82;;;9.73;;
20567;SDS011;10442;49.932;11.592;2023-02-12T15:41:54;11.80;;;10.38;;
20567;SDS011;10442;49.932;11.592;2023-02-12T15:44:23;11.95;;;10.85;;
20567;SDS011;10442;49.932;11.592;2023-02-12T15:47:08;11.10;;;10.00;;
20567;SDS011;10442;49.932;11.592;2023-02-12T15:49:39;10.63;;;9.52;;
20567;SDS011;10442;49.932;11.592;2023-02-12T15:54:44;10.38;;;9.23;;
20567;SDS011;10442;49.932;11.592;2023-02-12T15:57:18;10.77;;;9.55;;
20567;SDS011;10442;49.932;11.592;2023-02-12T15:59:52;10.20;;;9.20;;
20567;SDS011;10442;49.932;11.592;2023-02-12T16:02:25;10.38;;;9.38;;
20567;SDS011;10442;49.932;11.592;2023-02-12T16:04:55;8.68;;;7.70;;
20567;SDS011;10442;49.932;11.592;2023-02-12T16:07:24;10.85;;;9.75;;
20567;SDS011;10442;49.932;11.592;2023-02-12T16:09:55;9.15;;;8.30;;
20567;SDS011;10442;49.932;11.592;2023-02-12T16:12:24;11.35;;;10.25;;
20567;SDS011;10442;49.932;11.592;2023-02-12T16:14:56;11.68;;;10.05;;
20567;SDS011;10442;49.932;11.592;2023-02-12T16:17:30;14.23;;;11.52;;
20567;SDS011;10442;49.932;11.592;2023-02-12T16:20:05;14.85;;;12.75;;
20567;SDS011;10442;49.932;11.592;2023-02-12T16:22:45;13.88;;;12.50;;
20567;SDS011;10442;49.932;11.592;2023-02-12T16:25:16;14.85;;;12.63;;
20567;SDS011;10442;49.932;11.592;2023-02-12T16:28:06;13.98;;;11.48;;
20567;SDS011;10442;49.932;11.592;2023-02-12T16:30:42;13.30;;;11.02;;
20567;SDS011;10442;49.932;11.592;2023-02-12T16:43:48;16.92;;;12.88;;
20567;SDS011;10442;49.932;11.592;2023-02-12T16:46:18;15.63;;;13.30;;
20567;SDS011;10442;49.932;11.592;2023-02-12T16:48:49;16.55;;;14.05;;
20567;SDS011;10442;49.932;11.592;2023-02-12T16:51:19;16.88;;;14.52;;
20567;SDS011;10442;49.932;11.592;2023-02-12T16:53:52;16.63;;;13.65;;
20567;SDS011;10442;49.932;11.592;2023-02-12T16:56:25;17.13;;;14.95;;
20567;SDS011;10442;49.932;11.592;2023-02-12T16:58:56;15.35;;;13.73;;
20567;SDS011;10442;49.932;11.592;2023-02-12T17:01:26;15.38;;;13.77;;
20567;SDS011;10442;49.932;11.592;2023-02-12T17:03:56;19.02;;;14.63;;
20567;SDS011;10442;49.932;11.592;2023-02-12T17:06:26;13.75;;;12.20;;
20567;SDS011;10442;49.932;11.592;2023-02-12T17:08:55;16.23;;;12.93;;
20567;SDS011;10442;49.932;11.592;2023-02-12T17:11:24;16.48;;;13.18;;
20567;SDS011;10442;49.932;11.592;2023-02-12T17:13:53;14.50;;;12.82;;
20567;SDS011;10442;49.932;11.592;2023-02-12T17:16:22;13.43;;;11.98;;
20567;SDS011;10442;49.932;11.592;2023-02-12T17:18:57;13.95;;;11.93;;
20567;SDS011;10442;49.932;11.592;2023-02-12T17:21:27;14.70;;;11.95;;
20567;SDS011;10442;49.932;11.592;2023-02-12T17:26:43;15.10;;;13.10;;
20567;SDS011;10442;49.932;11.592;2023-02-12T17:29:11;15.70;;;13.68;;